createdAt,value
2022-10-22T00:01:13.446Z,22.30
2022-10-22T00:03:40.329Z,22.20
2022-10-22T00:06:07.599Z,22.20
2022-10-22T00:08:34.533Z,22.20
2022-10-22T00:11:09.004Z,22.20
2022-10-22T00:13:35.813Z,22.20
2022-10-22T00:16:02.559Z,22.20
2022-10-22T00:18:29.326Z,22.20
2022-10-22T00:20:56.519Z,22.20
2022-10-22T00:23:23.299Z,22.20
2022-10-22T00:25:50.090Z,22.10
2022-10-22T00:28:16.828Z,22.10
2022-10-22T00:30:43.567Z,22.10
2022-10-22T00:33:10.460Z,22.00
2022-10-22T00:35:39.211Z,22.00
2022-10-22T00:38:05.986Z,22.00
2022-10-22T00:40:34.735Z,22.00
2022-10-22T00:43:01.508Z,22.00
2022-10-22T00:45:28.948Z,21.90
2022-10-22T00:48:16.308Z,21.90
2022-10-22T00:50:46.185Z,21.90
2022-10-22T00:53:35.453Z,21.90
2022-10-22T00:56:02.432Z,21.90
2022-10-22T00:58:34.968Z,21.90
2022-10-22T01:01:02.427Z,21.90
2022-10-22T01:03:29.421Z,21.90
2022-10-22T01:05:58.528Z,21.90
2022-10-22T01:08:40.415Z,21.90
2022-10-22T01:11:35.089Z,21.90
2022-10-22T01:14:13.105Z,21.90
2022-10-22T01:16:54.879Z,21.80
2022-10-22T01:19:49.362Z,21.90
2022-10-22T01:22:40.233Z,21.90
2022-10-22T01:25:29.283Z,21.80
2022-10-22T01:28:20.624Z,21.80
2022-10-22T01:30:51.567Z,21.80
2022-10-22T01:33:21.928Z,21.80
2022-10-22T01:35:49.259Z,21.80
2022-10-22T01:38:20.341Z,21.80
2022-10-22T01:40:48.204Z,21.80
2022-10-22T01:43:15.327Z,21.80
2022-10-22T01:45:57.950Z,21.80
2022-10-22T01:48:46.005Z,21.80
2022-10-22T01:51:28.219Z,21.80
2022-10-22T01:54:06.466Z,21.80
2022-10-22T01:56:45.377Z,21.80
2022-10-22T01:59:32.539Z,21.80
2022-10-22T02:02:10.529Z,21.80
2022-10-22T02:04:40.299Z,21.80
2022-10-22T02:07:10.716Z,21.80
2022-10-22T02:09:39.923Z,21.80
2022-10-22T02:12:09.375Z,21.80
2022-10-22T02:14:39.738Z,21.80
2022-10-22T02:17:11.339Z,21.80
2022-10-22T02:19:53.460Z,21.80
2022-10-22T02:22:20.751Z,21.80
2022-10-22T02:24:49.442Z,21.70
2022-10-22T02:27:39.514Z,21.70
2022-10-22T02:32:46.100Z,21.70
2022-10-22T02:35:17.249Z,21.60
2022-10-22T02:37:45.256Z,21.60
2022-10-22T02:40:12.466Z,21.70
2022-10-22T02:42:40.883Z,21.70
2022-10-22T02:45:08.445Z,21.70
2022-10-22T02:47:35.435Z,21.60
2022-10-22T02:50:05.395Z,21.60
2022-10-22T02:52:34.680Z,21.60
2022-10-22T02:55:01.566Z,21.70
2022-10-22T02:57:28.304Z,21.60
2022-10-22T02:59:55.102Z,21.60
2022-10-22T03:02:22.026Z,21.70
2022-10-22T03:04:48.748Z,21.60
2022-10-22T03:07:15.595Z,21.60
2022-10-22T03:09:42.330Z,21.60
2022-10-22T03:12:09.270Z,21.60
2022-10-22T03:14:36.100Z,21.60
2022-10-22T03:17:02.947Z,21.60
2022-10-22T03:19:29.716Z,21.60
2022-10-22T03:22:11.124Z,21.60
2022-10-22T03:24:44.188Z,21.60
2022-10-22T03:27:12.890Z,21.50
2022-10-22T03:29:41.397Z,21.50
2022-10-22T03:32:08.464Z,21.50
2022-10-22T03:34:35.393Z,21.50
2022-10-22T03:37:02.369Z,21.50
2022-10-22T03:39:32.188Z,21.50
2022-10-22T03:41:59.446Z,21.50
2022-10-22T03:44:26.631Z,21.50
2022-10-22T03:46:53.374Z,21.50
2022-10-22T03:49:20.092Z,21.50
2022-10-22T03:51:46.975Z,21.60
2022-10-22T03:54:13.942Z,21.60
2022-10-22T03:56:40.638Z,21.60
2022-10-22T03:59:07.470Z,21.60
2022-10-22T04:01:34.451Z,21.70
2022-10-22T04:04:01.266Z,21.70
2022-10-22T04:06:29.993Z,21.70
2022-10-22T04:08:56.778Z,21.70
2022-10-22T04:11:23.566Z,21.70
2022-10-22T04:13:50.297Z,21.70
2022-10-22T04:16:19.869Z,21.70
2022-10-22T04:18:48.085Z,21.70
2022-10-22T04:21:16.884Z,21.70
2022-10-22T04:23:48.752Z,21.60
2022-10-22T04:26:16.454Z,21.60
2022-10-22T04:28:43.585Z,21.60
2022-10-22T04:31:16.616Z,21.60
2022-10-22T04:33:43.459Z,21.50
2022-10-22T04:36:13.942Z,21.50
2022-10-22T04:38:41.680Z,21.50
2022-10-22T04:41:20.140Z,21.50
2022-10-22T04:43:47.312Z,21.40
2022-10-22T04:46:16.056Z,21.40
2022-10-22T04:48:44.167Z,21.40
2022-10-22T04:51:17.819Z,21.30
2022-10-22T04:53:44.965Z,21.40
2022-10-22T04:56:11.720Z,21.30
2022-10-22T04:58:39.398Z,21.30
2022-10-22T05:01:15.561Z,21.40
2022-10-22T05:03:42.991Z,21.40
2022-10-22T05:06:10.053Z,21.30
2022-10-22T05:08:36.999Z,21.30
2022-10-22T05:11:15.481Z,21.30
2022-10-22T05:13:42.222Z,21.30
2022-10-22T05:16:09.632Z,21.20
2022-10-22T05:18:43.894Z,21.20
2022-10-22T05:21:13.237Z,21.30
2022-10-22T05:23:40.424Z,21.30
2022-10-22T05:26:09.796Z,21.30
2022-10-22T05:28:37.090Z,21.30
2022-10-22T05:31:04.754Z,21.30
2022-10-22T05:33:33.453Z,21.30
2022-10-22T05:36:01.143Z,21.30
2022-10-22T05:38:28.209Z,21.30
2022-10-22T05:41:02.370Z,21.30
2022-10-22T05:43:29.929Z,21.40
2022-10-22T05:45:56.776Z,21.40
2022-10-22T05:48:23.574Z,21.40
2022-10-22T05:50:50.809Z,21.40
2022-10-22T05:53:20.897Z,21.40
2022-10-22T05:55:47.761Z,21.40
2022-10-22T05:58:15.053Z,21.50
2022-10-22T06:00:42.062Z,21.40
2022-10-22T06:03:08.774Z,21.50
2022-10-22T06:05:37.359Z,21.50
2022-10-22T06:08:04.678Z,21.50
2022-10-22T06:10:31.850Z,21.50
2022-10-22T06:12:58.700Z,21.50
2022-10-22T06:15:25.447Z,21.50
2022-10-22T06:17:52.199Z,21.50
2022-10-22T06:20:19.097Z,21.50
2022-10-22T06:22:46.080Z,21.40
2022-10-22T06:25:14.184Z,21.40
2022-10-22T06:27:40.930Z,21.40
2022-10-22T06:30:08.425Z,21.40
2022-10-22T06:32:35.206Z,21.50
2022-10-22T06:35:01.965Z,21.50
2022-10-22T06:37:28.677Z,21.50
2022-10-22T06:39:55.446Z,21.50
2022-10-22T06:42:22.172Z,21.50
2022-10-22T06:44:48.860Z,21.50
2022-10-22T06:47:15.863Z,21.50
2022-10-22T06:49:42.697Z,21.50
2022-10-22T06:52:09.569Z,21.50
2022-10-22T06:54:36.372Z,21.50
2022-10-22T06:57:03.161Z,21.50
2022-10-22T06:59:30.080Z,21.50
2022-10-22T07:01:56.821Z,21.50
2022-10-22T07:04:23.527Z,21.60
2022-10-22T07:06:50.325Z,21.50
2022-10-22T07:11:45.700Z,21.60
2022-10-22T07:14:13.591Z,21.60
2022-10-22T07:16:43.028Z,21.60
2022-10-22T07:19:09.736Z,21.60
2022-10-22T07:21:36.636Z,21.60
2022-10-22T07:24:03.592Z,21.60
2022-10-22T07:26:32.501Z,21.60
2022-10-22T07:29:00.767Z,21.60
2022-10-22T07:31:28.058Z,21.60
2022-10-22T07:33:55.332Z,21.60
2022-10-22T07:36:22.226Z,21.70
2022-10-22T07:38:53.824Z,21.70
2022-10-22T07:41:20.504Z,21.70
2022-10-22T07:43:47.266Z,21.60
2022-10-22T07:46:14.253Z,21.60
2022-10-22T07:48:41.283Z,21.60
2022-10-22T07:51:08.698Z,21.60
2022-10-22T07:53:35.557Z,21.60
2022-10-22T07:56:02.674Z,21.60
2022-10-22T07:58:29.537Z,21.70
2022-10-22T08:00:58.146Z,21.70
2022-10-22T08:03:24.933Z,21.80
2022-10-22T08:05:52.246Z,21.80
2022-10-22T08:08:19.497Z,21.80
2022-10-22T08:10:47.953Z,21.90
2022-10-22T08:13:17.191Z,21.90
2022-10-22T08:18:11.969Z,22.00
2022-10-22T08:20:38.878Z,22.10
2022-10-22T08:23:05.775Z,22.10
2022-10-22T08:25:32.721Z,22.10
2022-10-22T08:27:59.463Z,22.20
2022-10-22T08:30:28.002Z,22.20
2022-10-22T08:32:54.724Z,22.30
2022-10-22T08:35:21.841Z,22.30
2022-10-22T08:37:48.572Z,22.40
2022-10-22T08:40:33.768Z,22.50
2022-10-22T08:43:29.543Z,22.50
2022-10-22T08:46:13.704Z,22.50
2022-10-22T08:48:48.315Z,22.50
2022-10-22T08:51:27.412Z,22.60
2022-10-22T08:54:09.307Z,22.60
2022-10-22T08:56:37.106Z,22.60
2022-10-22T08:59:16.154Z,22.60
2022-10-22T09:01:47.032Z,22.60
2022-10-22T09:04:25.643Z,22.60
2022-10-22T09:06:58.295Z,22.70
2022-10-22T09:09:30.302Z,22.60
2022-10-22T09:11:59.685Z,22.60
2022-10-22T09:14:26.940Z,22.60
2022-10-22T09:17:20.945Z,22.60
2022-10-22T09:20:11.060Z,22.60
2022-10-22T09:22:52.057Z,22.50
2022-10-22T09:25:31.417Z,22.60
2022-10-22T09:27:58.740Z,22.60
2022-10-22T09:30:31.485Z,22.50
2022-10-22T09:33:06.004Z,22.60
2022-10-22T09:35:48.702Z,22.60
2022-10-22T09:38:18.953Z,22.70
2022-10-22T09:40:51.882Z,22.80
2022-10-22T09:43:19.139Z,22.90
2022-10-22T09:45:46.738Z,23.10
2022-10-22T09:48:19.765Z,23.00
2022-10-22T09:50:55.579Z,23.10
2022-10-22T09:53:27.108Z,23.10
2022-10-22T09:56:06.225Z,23.10
2022-10-22T09:58:45.828Z,23.10
2022-10-22T10:01:29.009Z,23.00
2022-10-22T10:04:08.458Z,22.90
2022-10-22T10:06:39.145Z,22.90
2022-10-22T10:09:18.224Z,22.90
2022-10-22T10:12:06.587Z,22.90
2022-10-22T10:14:54.231Z,22.90
2022-10-22T10:17:53.077Z,22.90
2022-10-22T10:20:23.298Z,22.90
2022-10-22T10:22:57.323Z,22.90
2022-10-22T10:25:27.173Z,22.90
2022-10-22T10:28:06.061Z,22.80
2022-10-22T10:30:34.346Z,22.80
2022-10-22T10:33:20.056Z,22.80
2022-10-22T10:36:12.146Z,22.90
2022-10-22T10:39:02.770Z,22.90
2022-10-22T10:41:57.683Z,22.90
2022-10-22T10:44:39.731Z,22.90
2022-10-22T10:48:01.184Z,23.00
2022-10-22T10:50:48.611Z,23.00
2022-10-22T10:53:26.621Z,23.00
2022-10-22T10:56:17.964Z,23.10
2022-10-22T10:59:08.491Z,23.00
2022-10-22T11:01:41.202Z,23.00
2022-10-22T11:04:34.994Z,23.00
2022-10-22T11:07:11.376Z,23.10
2022-10-22T11:09:57.620Z,23.10
2022-10-22T11:12:30.413Z,23.10
2022-10-22T11:15:16.817Z,23.10
2022-10-22T11:17:47.389Z,23.20
2022-10-22T11:20:19.916Z,23.30
2022-10-22T11:23:17.713Z,23.40
2022-10-22T11:25:45.817Z,23.50
2022-10-22T11:28:38.531Z,23.60
2022-10-22T11:31:19.445Z,23.70
2022-10-22T11:34:09.849Z,23.70
2022-10-22T11:36:49.545Z,23.80
2022-10-22T11:39:43.733Z,23.80
2022-10-22T11:42:18.535Z,23.90
2022-10-22T11:45:04.868Z,23.90
2022-10-22T11:47:51.700Z,24.00
2022-10-22T11:50:25.527Z,24.00
2022-10-22T11:53:17.006Z,24.00
2022-10-22T11:55:47.837Z,24.10
2022-10-22T11:58:28.844Z,24.10
2022-10-22T12:01:21.936Z,24.20
2022-10-22T12:03:57.918Z,24.20
2022-10-22T12:06:28.800Z,24.30
2022-10-22T12:09:03.136Z,24.30
2022-10-22T12:11:41.665Z,24.30
2022-10-22T12:14:14.794Z,24.50
2022-10-22T12:17:01.717Z,24.50
2022-10-22T12:19:36.827Z,24.50
2022-10-22T12:22:06.635Z,24.60
2022-10-22T12:24:40.637Z,24.60
2022-10-22T12:27:24.203Z,24.60
2022-10-22T12:29:56.103Z,24.60
2022-10-22T12:32:23.419Z,24.40
2022-10-22T12:34:52.229Z,24.50
2022-10-22T12:37:19.575Z,24.60
2022-10-22T12:39:46.903Z,24.60
2022-10-22T12:42:16.394Z,24.60
2022-10-22T12:44:46.366Z,24.80
2022-10-22T12:47:18.200Z,24.90
2022-10-22T12:49:48.810Z,24.90
2022-10-22T12:52:23.649Z,24.80
2022-10-22T12:54:54.884Z,24.90
2022-10-22T12:57:22.318Z,24.80
2022-10-22T12:59:51.274Z,24.80
2022-10-22T13:02:18.643Z,24.70
2022-10-22T13:05:16.401Z,24.70
2022-10-22T13:07:48.102Z,24.70
2022-10-22T13:10:32.245Z,24.70
2022-10-22T13:12:59.261Z,24.80
2022-10-22T13:15:29.059Z,24.70
2022-10-22T13:18:23.870Z,24.80
2022-10-22T13:20:58.995Z,24.80
2022-10-22T13:23:28.350Z,24.80
2022-10-22T13:26:02.305Z,24.80
2022-10-22T13:28:31.166Z,24.80
2022-10-22T13:31:01.236Z,24.80
2022-10-22T13:33:36.015Z,24.90
2022-10-22T13:36:03.459Z,24.90
2022-10-22T13:38:30.990Z,24.90
2022-10-22T13:40:57.822Z,25.00
2022-10-22T13:43:25.370Z,24.90
2022-10-22T13:45:59.010Z,24.90
2022-10-22T13:48:28.211Z,25.00
2022-10-22T13:50:55.131Z,25.00
2022-10-22T13:53:25.453Z,25.00
2022-10-22T13:55:52.600Z,25.10
2022-10-22T13:58:24.571Z,25.10
2022-10-22T14:00:57.512Z,25.10
2022-10-22T14:03:32.924Z,25.20
2022-10-22T14:06:00.323Z,25.10
2022-10-22T14:08:28.283Z,25.20
2022-10-22T14:10:55.358Z,25.20
2022-10-22T14:13:22.180Z,25.20
2022-10-22T14:15:51.377Z,25.20
2022-10-22T14:18:27.286Z,25.20
2022-10-22T14:20:56.741Z,25.20
2022-10-22T14:23:26.716Z,25.20
2022-10-22T14:25:53.563Z,25.20
2022-10-22T14:28:20.427Z,25.20
2022-10-22T14:30:47.905Z,25.10
2022-10-22T14:33:21.274Z,25.10
2022-10-22T14:35:49.077Z,25.10
2022-10-22T14:38:16.189Z,25.10
2022-10-22T14:40:43.794Z,25.10
2022-10-22T14:43:31.279Z,25.10
2022-10-22T14:45:58.823Z,25.10
2022-10-22T14:48:25.601Z,25.10
2022-10-22T14:50:52.595Z,25.10
2022-10-22T14:53:19.453Z,25.00
2022-10-22T14:55:47.489Z,25.00
2022-10-22T14:58:15.167Z,25.10
2022-10-22T15:00:43.180Z,25.10
2022-10-22T15:03:10.582Z,25.10
2022-10-22T15:05:44.597Z,25.00
2022-10-22T15:08:12.965Z,25.00
2022-10-22T15:10:40.269Z,25.00
2022-10-22T15:13:07.135Z,25.00
2022-10-22T15:15:36.735Z,25.10
2022-10-22T15:18:06.315Z,25.00
2022-10-22T15:20:33.032Z,25.10
2022-10-22T15:23:01.056Z,25.10
2022-10-22T15:25:28.772Z,25.10
2022-10-22T15:27:59.673Z,25.00
2022-10-22T15:30:31.547Z,25.10
2022-10-22T15:32:58.288Z,25.00
2022-10-22T15:35:28.470Z,25.00
2022-10-22T15:37:55.399Z,25.00
2022-10-22T15:40:22.215Z,25.00
2022-10-22T15:42:48.935Z,25.00
2022-10-22T15:45:15.935Z,25.00
2022-10-22T15:47:47.603Z,25.00
2022-10-22T15:50:15.033Z,25.00
2022-10-22T15:52:41.781Z,25.00
2022-10-22T15:55:10.553Z,25.00
2022-10-22T15:57:38.472Z,24.90
2022-10-22T16:00:07.284Z,24.90
2022-10-22T16:02:34.239Z,24.90
2022-10-22T16:05:00.986Z,24.80
2022-10-22T16:07:27.795Z,24.80
2022-10-22T16:09:59.147Z,24.80
2022-10-22T16:12:25.932Z,24.70
2022-10-22T16:14:52.847Z,24.70
2022-10-22T16:17:19.602Z,24.60
2022-10-22T16:19:47.788Z,24.60
2022-10-22T16:22:15.735Z,24.50
2022-10-22T16:24:43.261Z,24.40
2022-10-22T16:27:10.425Z,24.40
2022-10-22T16:29:38.907Z,24.30
2022-10-22T16:32:06.406Z,24.30
2022-10-22T16:34:33.265Z,24.20
2022-10-22T16:37:00.143Z,24.20
2022-10-22T16:39:26.914Z,24.10
2022-10-22T16:41:53.654Z,24.10
2022-10-22T16:44:20.416Z,24.00
2022-10-22T16:46:47.256Z,24.00
2022-10-22T16:49:14.079Z,23.90
2022-10-22T16:51:40.838Z,23.90
2022-10-22T16:54:11.284Z,23.80
2022-10-22T16:56:39.263Z,23.80
2022-10-22T16:59:06.487Z,23.70
2022-10-22T17:01:36.866Z,23.70
2022-10-22T17:04:07.286Z,23.70
2022-10-22T17:06:34.059Z,23.70
2022-10-22T17:09:01.066Z,23.70
2022-10-22T17:11:30.263Z,23.70
2022-10-22T17:13:57.078Z,23.70
2022-10-22T17:16:25.031Z,23.70
2022-10-22T17:18:54.024Z,23.70
2022-10-22T17:21:21.558Z,23.70
2022-10-22T17:23:48.535Z,23.60
2022-10-22T17:26:20.868Z,23.60
2022-10-22T17:28:48.463Z,23.70
2022-10-22T17:31:32.251Z,23.60
2022-10-22T17:34:00.027Z,23.60
2022-10-22T17:36:30.437Z,23.50
2022-10-22T17:39:02.552Z,23.50
2022-10-22T17:41:32.156Z,23.50
2022-10-22T17:44:01.314Z,23.40
2022-10-22T17:46:29.756Z,23.40
2022-10-22T17:49:12.248Z,23.40
2022-10-22T17:51:39.108Z,23.40
2022-10-22T17:54:08.827Z,23.30
2022-10-22T17:56:37.708Z,23.30
2022-10-22T17:59:04.421Z,23.30
2022-10-22T18:01:33.872Z,23.20
2022-10-22T18:04:06.271Z,23.20
2022-10-22T18:06:33.576Z,23.20
2022-10-22T18:09:05.786Z,23.10
2022-10-22T18:11:32.836Z,23.10
2022-10-22T18:13:59.634Z,23.00
2022-10-22T18:16:26.657Z,23.00
2022-10-22T18:18:55.686Z,22.90
2022-10-22T18:21:26.847Z,22.90
2022-10-22T18:23:54.030Z,22.90
2022-10-22T18:26:26.678Z,22.80
2022-10-22T18:28:54.381Z,22.80
2022-10-22T18:31:23.325Z,22.80
2022-10-22T18:33:50.243Z,22.70
2022-10-22T18:36:19.436Z,22.70
2022-10-22T18:38:58.237Z,22.70
2022-10-22T18:41:26.016Z,22.60
2022-10-22T18:43:57.421Z,22.60
2022-10-22T18:46:25.322Z,22.60
2022-10-22T18:48:58.982Z,22.60
2022-10-22T18:51:28.342Z,22.60
2022-10-22T18:54:05.280Z,22.60
2022-10-22T18:56:40.124Z,22.50
2022-10-22T18:59:06.983Z,22.60
2022-10-22T19:01:35.616Z,22.50
2022-10-22T19:04:02.596Z,22.50
2022-10-22T19:06:36.738Z,22.50
2022-10-22T19:09:04.742Z,22.50
2022-10-22T19:11:32.667Z,22.50
2022-10-22T19:13:59.447Z,22.40
2022-10-22T19:16:27.082Z,22.40
2022-10-22T19:19:03.680Z,22.50
2022-10-22T19:21:30.794Z,22.50
2022-10-22T19:23:59.054Z,22.50
2022-10-22T19:26:27.656Z,22.40
2022-10-22T19:28:55.958Z,22.40
2022-10-22T19:31:24.681Z,22.40
2022-10-22T19:33:52.071Z,22.40
2022-10-22T19:36:19.795Z,22.40
2022-10-22T19:38:48.779Z,22.40
2022-10-22T19:41:18.449Z,22.40
2022-10-22T19:43:48.073Z,22.40
2022-10-22T19:46:15.024Z,22.30
2022-10-22T19:48:41.823Z,22.30
2022-10-22T19:51:11.143Z,22.30
2022-10-22T19:53:38.963Z,22.30
2022-10-22T19:56:07.571Z,22.30
2022-10-22T19:58:35.700Z,22.30
2022-10-22T20:01:10.584Z,22.30
2022-10-22T20:03:38.715Z,22.30
2022-10-22T20:06:07.961Z,22.30
2022-10-22T20:08:37.947Z,22.30
2022-10-22T20:11:07.806Z,22.30
2022-10-22T20:13:35.630Z,22.30
2022-10-22T20:16:02.628Z,22.30
2022-10-22T20:18:29.393Z,22.20
2022-10-22T20:20:56.240Z,22.20
2022-10-22T20:23:22.990Z,22.20
2022-10-22T20:25:49.800Z,22.20
2022-10-22T20:28:16.633Z,22.20
2022-10-22T20:30:44.782Z,22.10
2022-10-22T20:33:12.036Z,22.10
2022-10-22T20:35:39.161Z,22.10
2022-10-22T20:38:07.312Z,22.00
2022-10-22T20:40:34.137Z,22.00
2022-10-22T20:43:01.633Z,22.00
2022-10-22T20:45:28.976Z,21.90
2022-10-22T20:48:02.793Z,22.00
2022-10-22T20:50:32.060Z,21.90
2022-10-22T20:52:59.502Z,21.90
2022-10-22T20:55:27.039Z,21.90
2022-10-22T20:57:53.933Z,21.90
2022-10-22T21:00:20.938Z,21.90
2022-10-22T21:02:47.620Z,21.90
2022-10-22T21:05:14.361Z,21.90
2022-10-22T21:07:41.249Z,21.90
2022-10-22T21:10:08.402Z,21.80
2022-10-22T21:12:35.190Z,21.80
2022-10-22T21:15:01.939Z,21.80
2022-10-22T21:17:28.639Z,21.80
2022-10-22T21:19:55.405Z,21.70
2022-10-22T21:22:22.185Z,21.70
2022-10-22T21:24:49.043Z,21.70
2022-10-22T21:27:15.743Z,21.70
2022-10-22T21:29:42.452Z,21.60
2022-10-22T21:32:09.403Z,21.60
2022-10-22T21:34:38.829Z,21.60
2022-10-22T21:37:06.192Z,21.60
2022-10-22T21:39:32.983Z,21.60
2022-10-22T21:41:59.746Z,21.60
2022-10-22T21:44:26.547Z,21.50
2022-10-22T21:46:53.409Z,21.50
2022-10-22T21:49:20.138Z,21.50
2022-10-22T21:51:47.068Z,21.50
2022-10-22T21:54:13.812Z,21.50
2022-10-22T21:56:40.875Z,21.40
2022-10-22T21:59:07.952Z,21.50
2022-10-22T22:01:35.011Z,21.40
2022-10-22T22:04:02.524Z,21.40
2022-10-22T22:06:33.195Z,21.40
2022-10-22T22:09:01.620Z,21.40
2022-10-22T22:11:29.197Z,21.30
2022-10-22T22:13:57.544Z,21.30
2022-10-22T22:16:30.315Z,21.30
2022-10-22T22:19:00.261Z,21.20
2022-10-22T22:21:27.764Z,21.20
2022-10-22T22:23:54.538Z,21.20
2022-10-22T22:26:26.726Z,21.20
2022-10-22T22:28:57.555Z,21.20
2022-10-22T22:31:31.784Z,21.10
2022-10-22T22:34:04.285Z,21.20
2022-10-22T22:36:39.835Z,21.20
2022-10-22T22:39:09.092Z,21.20
2022-10-22T22:41:35.888Z,21.20
2022-10-22T22:44:02.694Z,21.20
2022-10-22T22:46:29.491Z,21.20
2022-10-22T22:48:56.434Z,21.20
2022-10-22T22:51:23.694Z,21.20
2022-10-22T22:53:50.998Z,21.20
2022-10-22T22:56:23.201Z,21.20
2022-10-22T22:58:50.267Z,21.20
2022-10-22T23:01:23.384Z,21.20
2022-10-22T23:04:19.074Z,21.20
2022-10-22T23:06:46.636Z,21.20
2022-10-22T23:09:15.568Z,21.20
2022-10-22T23:11:44.457Z,21.20
2022-10-22T23:14:14.759Z,21.20
2022-10-22T23:16:46.076Z,21.20
2022-10-22T23:19:18.787Z,21.10
2022-10-22T23:21:48.763Z,21.10
2022-10-22T23:24:23.583Z,21.10
2022-10-22T23:26:52.325Z,21.10
2022-10-22T23:29:25.190Z,21.10
2022-10-22T23:31:53.347Z,21.10
2022-10-22T23:34:23.084Z,21.10
2022-10-22T23:36:50.175Z,21.10
2022-10-22T23:39:20.365Z,21.10
2022-10-22T23:41:47.384Z,21.10
2022-10-22T23:44:14.286Z,21.10
2022-10-22T23:46:41.308Z,21.00
2022-10-22T23:49:09.400Z,21.00
2022-10-22T23:51:36.850Z,21.00
2022-10-22T23:54:07.121Z,21.00
2022-10-22T23:56:34.535Z,21.00
2022-10-22T23:59:01.395Z,21.00
